Time;durP1;ratioP1;P1;durP2;ratioP2;P2;SDS_P1;SDS_P2;PMS_P1;PMS_P2;Temp;Humidity;BMP_temperature;BMP_pressure;BME280_temperature;BME280_humidity;BME280_pressure;Samples;Min_cycle;Max_cycle;Signal;HPM_P1;HPM_P2
2022/08/18 00:02:14;;;;;;;;;;;;;;;29.53;44.54;97306.31;5110089;28;19924;-61
2022/08/18 00:04:41;;;;;;;;;;;;;;;29.32;44.92;97312.72;5110226;28;19983;-61
2022/08/18 00:07:08;;;;;;;;;;;;;;;29.28;44.56;97297.41;5110007;28;19934;-62
2022/08/18 00:09:35;;;;;;;;;;;;;;;28.95;44.96;97287.72;5110168;28;19924;-62
2022/08/18 00:12:03;;;;;;;;;;;;;;;29.07;45.19;97290.03;5109938;28;20433;-62
2022/08/18 00:14:30;;;;;;;;;;;;;;;29.07;45.10;97311.22;5092146;28;19950;-61
2022/08/18 00:16:57;;;;;;;;;;;;;;;29.00;45.46;97319.53;5110282;28;19931;-62
2022/08/18 00:19:25;;;;;;;;;;;;;;;28.84;46.07;97328.97;5110060;28;19948;-62
2022/08/18 00:21:51;;;;;;;;;;;;;;;28.92;46.32;97325.03;5109991;28;19963;-61
2022/08/18 00:24:18;;;;;;;;;;;;;;;28.90;46.78;97324.66;5120754;28;19935;-61
2022/08/18 00:26:44;;;;;;;;;;;;;;;28.69;48.19;97346.66;5121917;28;19919;-63
2022/08/18 00:29:10;;;;;;;;;;;;;;;28.74;48.71;97343.53;5121967;28;19924;-62
2022/08/18 00:31:36;;;;;;;;;;;;;;;28.85;49.17;97333.28;5118974;28;19967;-62
2022/08/18 00:34:03;;;;;;;;;;;;;;;28.71;50.51;97354.53;5118169;28;19924;-62
2022/08/18 00:36:31;;;;;;;;;;;;;;;28.67;51.11;97364.72;5119760;28;19920;-63
2022/08/18 00:38:57;;;;;;;;;;;;;;;28.68;52.21;97358.06;5121349;28;19923;-62
2022/08/18 00:41:25;;;;;;;;;;;;;;;28.48;53.49;97351.38;5120334;28;19967;-61
2022/08/18 00:43:52;;;;;;;;;;;;;;;28.64;53.26;97341.56;5118163;28;19938;-62
2022/08/18 00:46:19;;;;;;;;;;;;;;;28.72;52.99;97334.13;5118365;28;19924;-61
2022/08/18 00:48:46;;;;;;;;;;;;;;;28.79;52.91;97332.13;5121667;28;19928;-62
2022/08/18 00:51:15;;;;;;;;;;;;;;;28.79;52.82;97334.88;5121630;28;19924;-62
2022/08/18 00:53:46;;;;;;;;;;;;;;;28.76;53.16;97338.41;5120653;27;20575;-63
2022/08/18 00:56:14;;;;;;;;;;;;;;;28.94;52.67;97346.59;5129960;27;19924;-62
2022/08/18 00:58:43;;;;;;;;;;;;;;;28.88;53.00;97351.72;5125092;28;19931;-61
2022/08/18 01:01:11;;;;;;;;;;;;;;;28.79;52.82;97356.84;5125247;28;19990;-61
2022/08/18 01:03:38;;;;;;;;;;;;;;;28.72;53.08;97356.09;5122114;28;19939;-62
2022/08/18 01:06:09;;;;;;;;;;;;;;;28.65;53.10;97359.63;5121558;28;19924;-61
2022/08/18 01:08:37;;;;;;;;;;;;;;;28.72;53.20;97376.09;5124385;28;19935;-61
2022/08/18 01:11:05;;;;;;;;;;;;;;;28.71;53.46;97388.28;5125126;28;19962;-61
2022/08/18 01:13:32;;;;;;;;;;;;;;;28.69;53.27;97385.13;5123114;28;19924;-61
2022/08/18 01:21:49;;;;;;;;;;;;;;;28.74;53.18;97387.50;5121624;28;19924;-63
2022/08/18 01:24:15;;;;;;;;;;;;;;;28.66;54.37;97380.44;5129665;27;20024;-62
2022/08/18 01:26:44;;;;;;;;;;;;;;;28.69;55.10;97387.13;5125148;28;19970;-62
2022/08/18 01:29:10;;;;;;;;;;;;;;;28.72;55.10;97376.09;5125263;28;19965;-62
2022/08/18 01:31:38;;;;;;;;;;;;;;;28.78;55.76;97379.25;5121859;28;19954;-61
2022/08/18 01:34:05;;;;;;;;;;;;;;;28.47;56.69;97369.84;5121069;28;19928;-62
2022/08/18 01:36:33;;;;;;;;;;;;;;;28.42;57.49;97375.69;5122877;28;20567;-61
2022/08/18 01:39:00;;;;;;;;;;;;;;;28.68;56.86;97378.09;5124539;28;19979;-62
2022/08/18 01:41:28;;;;;;;;;;;;;;;28.77;57.18;97375.72;5123103;28;19979;-62
2022/08/18 01:43:54;;;;;;;;;;;;;;;28.65;60.07;97386.34;5121041;28;19920;-61
2022/08/18 01:46:22;;;;;;;;;;;;;;;28.72;60.32;97380.84;5121250;28;20061;-61
2022/08/18 01:48:48;;;;;;;;;;;;;;;28.38;64.25;97381.19;5124487;28;19962;-61
2022/08/18 01:51:16;;;;;;;;;;;;;;;28.41;66.61;97365.88;5124282;28;19928;-61
2022/08/18 01:53:43;;;;;;;;;;;;;;;28.30;69.08;97359.63;5113589;27;19970;-61
2022/08/18 01:56:09;;;;;;;;;;;;;;;28.28;70.70;97356.50;5129926;27;19970;-61
2022/08/18 01:58:37;;;;;;;;;;;;;;;28.45;71.51;97352.16;5123280;28;19962;-61
2022/08/18 02:01:04;;;;;;;;;;;;;;;28.62;71.30;97348.63;5124179;28;19924;-61
2022/08/18 02:03:39;;;;;;;;;;;;;;;28.58;72.69;97342.34;5122218;28;19924;-61
2022/08/18 02:06:09;;;;;;;;;;;;;;;28.71;71.87;97333.34;5119944;28;19927;-61
2022/08/18 02:08:36;;;;;;;;;;;;;;;28.59;73.29;97335.69;5123072;28;19931;-61
2022/08/18 02:11:02;;;;;;;;;;;;;;;28.41;76.05;97341.16;5123964;28;19991;-61
2022/08/18 02:13:29;;;;;;;;;;;;;;;28.50;75.70;97332.53;5122398;28;19999;-61
2022/08/18 02:15:57;;;;;;;;;;;;;;;28.56;74.97;97329.00;5120348;28;19987;-62
2022/08/18 02:18:26;;;;;;;;;;;;;;;28.51;75.15;97318.41;5121037;28;19935;-61
2022/08/18 02:20:52;;;;;;;;;;;;;;;28.00;78.62;97332.53;5123662;28;19928;-61
2022/08/18 02:23:19;;;;;;;;;;;;;;;28.18;77.61;97327.06;5123215;28;19991;-61
2022/08/18 02:25:45;;;;;;;;;;;;;;;28.25;77.53;97321.56;5131112;27;19980;-61
2022/08/18 02:28:12;;;;;;;;;;;;;;;28.00;79.20;97327.03;5120055;28;19975;-61
2022/08/18 02:30:38;;;;;;;;;;;;;;;28.13;77.96;97321.97;5122940;28;19987;-61
2022/08/18 02:33:07;;;;;;;;;;;;;;;28.34;77.19;97333.75;5123445;28;19924;-61
2022/08/18 02:35:34;;;;;;;;;;;;;;;28.08;78.95;97327.84;5121360;28;19951;-62
2022/08/18 02:38:01;;;;;;;;;;;;;;;28.17;78.62;97328.22;5119648;28;19931;-61
2022/08/18 02:40:28;;;;;;;;;;;;;;;28.37;77.22;97329.41;5121258;28;20356;-61
2022/08/18 02:42:54;;;;;;;;;;;;;;;28.45;76.66;97324.69;5123283;28;19991;-62
2022/08/18 02:45:21;;;;;;;;;;;;;;;28.43;76.27;97322.34;5122729;28;19963;-62
2022/08/18 02:47:52;;;;;;;;;;;;;;;28.52;76.35;97325.47;5119754;28;19931;-61
2022/08/18 02:50:20;;;;;;;;;;;;;;;28.61;75.91;97322.31;5119985;28;19924;-61
2022/08/18 02:52:46;;;;;;;;;;;;;;;28.55;75.43;97308.19;5105349;28;19935;-61
2022/08/18 02:55:13;;;;;;;;;;;;;;;28.53;75.85;97305.06;5134103;27;19969;-62
2022/08/18 02:57:41;;;;;;;;;;;;;;;28.50;75.60;97311.34;5120215;28;19950;-61
2022/08/18 03:00:10;;;;;;;;;;;;;;;28.60;74.84;97318.78;5119758;28;19924;-61
2022/08/18 03:02:37;;;;;;;;;;;;;;;28.67;74.19;97329.78;5122309;28;19963;-61
2022/08/18 03:05:03;;;;;;;;;;;;;;;28.72;73.89;97325.88;5122863;28;19958;-60
2022/08/18 03:07:31;;;;;;;;;;;;;;;28.68;73.58;97314.09;5121049;28;19994;-62
2022/08/18 03:09:57;;;;;;;;;;;;;;;28.47;74.27;97314.91;5119401;28;19967;-61
2022/08/18 03:12:24;;;;;;;;;;;;;;;28.35;74.90;97312.53;5119983;28;19959;-61
2022/08/18 03:14:50;;;;;;;;;;;;;;;28.36;75.60;97312.16;5122765;28;19959;-62
2022/08/18 03:17:16;;;;;;;;;;;;;;;28.17;76.19;97314.50;5121677;28;20462;-61
2022/08/18 03:19:44;;;;;;;;;;;;;;;28.07;76.83;97323.53;5110637;28;19967;-62
2022/08/18 03:22:11;;;;;;;;;;;;;;;28.22;76.75;97311.38;5110529;28;19928;-62
2022/08/18 03:24:38;;;;;;;;;;;;;;;28.07;77.38;97326.28;5124512;27;19928;-61
2022/08/18 03:27:06;;;;;;;;;;;;;;;28.30;76.08;97324.72;5122444;28;19934;-61
2022/08/18 03:29:33;;;;;;;;;;;;;;;28.44;74.92;97312.94;5120306;28;19946;-61
2022/08/18 03:31:59;;;;;;;;;;;;;;;28.55;74.39;97323.91;5119082;28;19920;-62
2022/08/18 03:34:25;;;;;;;;;;;;;;;28.60;73.96;97331.72;5120159;28;19970;-63
2022/08/18 03:36:52;;;;;;;;;;;;;;;28.63;73.51;97331.72;5122281;28;19924;-62
2022/08/18 03:39:21;;;;;;;;;;;;;;;28.61;72.81;97338.81;5122210;28;19924;-62
2022/08/18 03:41:52;;;;;;;;;;;;;;;28.55;72.76;97338.41;5118882;28;19924;-62
2022/08/18 03:44:18;;;;;;;;;;;;;;;28.54;73.36;97342.34;5119008;28;19931;-61
2022/08/18 03:46:45;;;;;;;;;;;;;;;28.60;73.02;97331.72;5122313;28;19924;-61
2022/08/18 03:49:12;;;;;;;;;;;;;;;28.64;72.51;97343.50;5122275;28;19923;-61
2022/08/18 03:51:42;;;;;;;;;;;;;;;28.69;71.75;97334.91;5119132;28;20072;-61
2022/08/18 03:54:09;;;;;;;;;;;;;;;28.57;72.14;97338.81;5127099;27;19953;-62
2022/08/18 03:56:37;;;;;;;;;;;;;;;28.54;72.64;97341.56;5123119;28;20536;-61
2022/08/18 03:59:06;;;;;;;;;;;;;;;28.49;73.03;97355.69;5122044;28;19932;-61
2022/08/18 04:01:34;;;;;;;;;;;;;;;28.47;72.92;97363.56;5119760;28;20017;-62
2022/08/18 04:04:02;;;;;;;;;;;;;;;28.48;72.64;97363.13;5118547;28;19920;-61
2022/08/18 04:06:29;;;;;;;;;;;;;;;28.48;72.62;97363.13;5119714;28;19983;-61
2022/08/18 04:08:57;;;;;;;;;;;;;;;28.49;72.66;97369.44;5122115;28;19939;-62
2022/08/18 04:11:24;;;;;;;;;;;;;;;28.43;72.57;97366.28;5121104;28;19924;-62
2022/08/18 04:13:50;;;;;;;;;;;;;;;28.46;72.79;97364.72;5118597;28;19924;-63
2022/08/18 04:16:18;;;;;;;;;;;;;;;28.42;73.16;97381.97;5118495;28;19963;-63
2022/08/18 04:18:44;;;;;;;;;;;;;;;28.35;72.10;97381.19;5109892;28;19963;-61
2022/08/18 04:21:12;;;;;;;;;;;;;;;28.35;71.31;97375.69;5110011;28;19924;-62
2022/08/18 04:23:39;;;;;;;;;;;;;;;28.36;73.23;97377.28;5109878;28;19932;-62
2022/08/18 04:26:07;;;;;;;;;;;;;;;28.33;74.38;97375.31;5128450;28;19991;-61
2022/08/18 04:28:34;;;;;;;;;;;;;;;28.34;74.64;97387.88;5122145;28;19924;-62
2022/08/18 04:31:05;;;;;;;;;;;;;;;28.26;75.02;97383.53;5125848;28;20000;-62
2022/08/18 04:33:33;;;;;;;;;;;;;;;28.36;74.56;97388.25;5123817;28;19974;-62
2022/08/18 04:36:06;;;;;;;;;;;;;;;28.38;74.37;97385.91;5104277;28;19991;-63
2022/08/18 04:38:32;;;;;;;;;;;;;;;28.39;74.00;97381.97;5124349;28;19931;-61
2022/08/18 04:40:59;;;;;;;;;;;;;;;28.42;73.86;97381.19;5125809;28;19963;-61
2022/08/18 04:43:25;;;;;;;;;;;;;;;28.44;73.84;97373.38;5124552;28;19955;-62
2022/08/18 04:45:51;;;;;;;;;;;;;;;28.41;73.86;97368.63;5122325;28;19935;-61
2022/08/18 04:48:18;;;;;;;;;;;;;;;28.37;74.10;97374.16;5122139;28;19991;-62
2022/08/18 04:50:45;;;;;;;;;;;;;;;28.31;74.43;97372.19;5125499;28;19958;-62
2022/08/18 04:55:56;;;;;;;;;;;;;;;28.29;74.64;97366.28;5133102;27;20018;-61
2022/08/18 04:58:23;;;;;;;;;;;;;;;28.36;74.19;97367.06;5122603;28;19924;-62
2022/08/18 05:00:57;;;;;;;;;;;;;;;28.35;74.32;97367.47;5125447;28;19979;-62
2022/08/18 05:03:25;;;;;;;;;;;;;;;28.27;74.69;97357.66;5124487;28;20105;-62
2022/08/18 05:05:53;;;;;;;;;;;;;;;28.31;74.55;97369.44;5121796;28;19946;-62
2022/08/18 05:08:21;;;;;;;;;;;;;;;28.34;74.92;97368.66;5122002;28;19939;-61
2022/08/18 05:10:47;;;;;;;;;;;;;;;28.34;74.37;97376.88;5124957;28;19927;-62
2022/08/18 05:13:15;;;;;;;;;;;;;;;28.31;75.30;97372.97;5125084;28;19984;-61
2022/08/18 05:15:42;;;;;;;;;;;;;;;28.34;75.68;97368.66;5121456;28;19967;-61
2022/08/18 05:18:08;;;;;;;;;;;;;;;28.28;75.89;97354.53;5121499;28;19935;-61
2022/08/18 05:20:36;;;;;;;;;;;;;;;28.32;75.91;97349.00;5124063;28;19966;-61
2022/08/18 05:23:04;;;;;;;;;;;;;;;28.27;76.65;97349.41;5124971;28;19955;-61
2022/08/18 05:25:30;;;;;;;;;;;;;;;28.27;76.90;97335.69;5134100;27;19924;-62
2022/08/18 05:27:56;;;;;;;;;;;;;;;28.31;76.30;97336.47;5121499;28;19995;-62
2022/08/18 05:30:23;;;;;;;;;;;;;;;28.28;76.51;97337.25;5122090;28;19928;-62
2022/08/18 05:32:49;;;;;;;;;;;;;;;28.25;76.82;97347.09;5124861;28;19923;-61
2022/08/18 05:35:19;;;;;;;;;;;;;;;28.22;75.52;97364.34;5124615;28;19951;-61
2022/08/18 05:37:52;;;;;;;;;;;;;;;28.27;75.88;97368.63;5120948;28;20591;-61
2022/08/18 05:40:22;;;;;;;;;;;;;;;28.15;76.54;97378.06;5120299;28;19924;-63
2022/08/18 05:42:48;;;;;;;;;;;;;;;28.23;76.43;97384.31;5124661;28;19967;-62
2022/08/18 05:45:16;;;;;;;;;;;;;;;28.19;76.80;97392.59;5124519;28;19964;-61
2022/08/18 05:47:43;;;;;;;;;;;;;;;28.11;76.69;97390.19;5120716;28;19947;-62
2022/08/18 05:50:10;;;;;;;;;;;;;;;28.10;77.95;97383.91;5121035;28;19927;-62
2022/08/18 05:52:39;;;;;;;;;;;;;;;28.08;77.99;97382.75;5123573;28;19935;-63
2022/08/18 05:57:54;;;;;;;;;;;;;;;28.07;78.22;97376.47;5120632;28;19924;-61
2022/08/18 06:00:22;;;;;;;;;;;;;;;27.97;79.25;97374.47;5120862;28;20002;-62
2022/08/18 06:02:52;;;;;;;;;;;;;;;28.24;77.21;97374.91;5124149;28;19946;-61
2022/08/18 06:05:21;;;;;;;;;;;;;;;28.40;76.29;97380.81;5123996;28;19935;-62
2022/08/18 06:07:50;;;;;;;;;;;;;;;28.30;78.03;97379.63;5120328;28;19924;-62
2022/08/18 06:10:17;;;;;;;;;;;;;;;28.49;77.44;97386.69;5120484;28;19920;-62
2022/08/18 06:12:46;;;;;;;;;;;;;;;28.48;77.90;97396.09;5111947;28;19925;-61
2022/08/18 06:15:15;;;;;;;;;;;;;;;28.63;76.83;97396.88;5111864;28;19924;-61
2022/08/18 06:17:59;;;;;;;;;;;;;;;28.75;76.41;97396.53;5111937;28;19959;-61
2022/08/18 06:20:30;;;;;;;;;;;;;;;28.76;74.29;97406.31;5111774;28;19974;-62
2022/08/18 06:23:01;;;;;;;;;;;;;;;28.93;72.74;97408.28;5111800;28;19971;-62
2022/08/18 06:25:33;;;;;;;;;;;;;;;29.02;72.74;97407.88;5131413;27;19955;-62
2022/08/18 06:28:02;;;;;;;;;;;;;;;28.96;72.18;97403.97;5120055;28;19935;-61
2022/08/18 06:30:40;;;;;;;;;;;;;;;29.08;71.46;97406.28;5121552;28;19953;-61
2022/08/18 06:33:12;;;;;;;;;;;;;;;29.27;71.03;97414.91;5123419;28;19974;-61
2022/08/18 06:35:41;;;;;;;;;;;;;;;29.38;70.73;97421.16;5120417;28;19932;-61
2022/08/18 06:41:02;;;;;;;;;;;;;;;29.34;70.23;97419.59;5119906;28;19939;-62
2022/08/18 06:43:33;;;;;;;;;;;;;;;28.77;70.54;97422.44;5121294;28;19924;-61
2022/08/18 06:46:00;;;;;;;;;;;;;;;28.65;73.63;97420.09;5123171;28;20623;-61
2022/08/18 06:48:32;;;;;;;;;;;;;;;28.81;72.30;97423.19;5121847;28;19962;-61
2022/08/18 06:50:59;;;;;;;;;;;;;;;29.01;71.07;97417.28;5119555;28;19937;-62
2022/08/18 06:53:41;;;;;;;;;;;;;;;29.21;69.84;97418.44;5120573;28;19935;-61
2022/08/18 06:56:20;;;;;;;;;;;;;;;29.42;68.68;97410.16;5111350;28;19935;-61
2022/08/18 06:58:47;;;;;;;;;;;;;;;29.48;68.10;97413.25;5119324;28;19962;-62
2022/08/18 07:01:17;;;;;;;;;;;;;;;29.63;66.81;97415.56;5119297;28;19935;-62
2022/08/18 07:03:55;;;;;;;;;;;;;;;29.58;65.26;97416.00;5110861;28;19924;-61
2022/08/18 07:06:26;;;;;;;;;;;;;;;29.23;66.96;97413.31;5110635;28;19930;-62
2022/08/18 07:08:54;;;;;;;;;;;;;;;28.77;68.75;97418.91;5110868;28;19924;-61
2022/08/18 07:11:22;;;;;;;;;;;;;;;29.12;69.34;97409.81;5110699;28;19927;-62
2022/08/18 07:13:50;;;;;;;;;;;;;;;29.33;66.80;97418.03;5110603;28;19995;-61
2022/08/18 07:16:20;;;;;;;;;;;;;;;28.72;68.91;97417.31;5110770;28;20400;-61
2022/08/18 07:18:46;;;;;;;;;;;;;;;29.08;69.15;97409.03;5119287;28;19920;-62
2022/08/18 07:21:24;;;;;;;;;;;;;;;29.30;67.65;97405.88;5118967;28;19924;-62
2022/08/18 07:23:58;;;;;;;;;;;;;;;29.35;66.48;97405.44;5113892;27;19930;-62
2022/08/18 07:26:25;;;;;;;;;;;;;;;29.54;65.96;97406.16;5124818;27;19939;-62
2022/08/18 07:28:52;;;;;;;;;;;;;;;29.62;65.23;97402.97;5122362;28;19983;-61
2022/08/18 07:31:34;;;;;;;;;;;;;;;29.59;64.02;97398.28;5122023;28;19959;-62
2022/08/18 07:34:03;;;;;;;;;;;;;;;29.64;64.17;97400.63;5118862;28;19996;-61
2022/08/18 07:36:32;;;;;;;;;;;;;;;29.31;62.84;97410.16;5120386;28;19920;-61
2022/08/18 07:39:02;;;;;;;;;;;;;;;29.34;64.26;97419.59;5122373;28;19959;-62
2022/08/18 07:41:31;;;;;;;;;;;;;;;29.36;63.80;97411.75;5120545;28;19924;-62
2022/08/18 07:44:03;;;;;;;;;;;;;;;29.49;63.39;97409.34;5118743;28;19924;-61
2022/08/18 07:46:35;;;;;;;;;;;;;;;29.50;62.54;97399.88;5119799;28;19952;-61
2022/08/18 07:49:02;;;;;;;;;;;;;;;29.25;62.35;97398.00;5122432;28;20026;-61
2022/08/18 07:51:32;;;;;;;;;;;;;;;29.31;62.25;97406.63;5120736;28;19975;-62
2022/08/18 07:53:59;;;;;;;;;;;;;;;29.32;62.04;97408.22;5124533;28;19931;-61
2022/08/18 07:56:31;;;;;;;;;;;;;;;29.36;62.39;97406.25;5124716;27;19928;-61
2022/08/18 07:59:02;;;;;;;;;;;;;;;29.21;62.26;97396.44;5122383;28;19979;-61
2022/08/18 08:01:34;;;;;;;;;;;;;;;29.03;63.12;97390.97;5120566;28;19931;-61
2022/08/18 08:04:07;;;;;;;;;;;;;;;28.86;63.20;97380.81;5118480;28;19924;-62
2022/08/18 08:06:38;;;;;;;;;;;;;;;29.14;62.35;97363.44;5120909;28;19924;-62
2022/08/18 08:09:09;;;;;;;;;;;;;;;29.28;61.78;97366.97;5122578;28;19924;-61
2022/08/18 08:11:43;;;;;;;;;;;;;;;29.21;61.85;97364.22;5120049;28;20037;-61
2022/08/18 08:14:19;;;;;;;;;;;;;;;29.23;61.17;97364.59;5119199;28;19985;-61
2022/08/18 08:16:48;;;;;;;;;;;;;;;29.13;62.05;97359.13;5118782;28;19925;-61
2022/08/18 08:19:44;;;;;;;;;;;;;;;29.33;61.18;97352.81;5118876;28;19936;-61
2022/08/18 08:22:12;;;;;;;;;;;;;;;29.26;60.75;97341.03;5118561;28;19924;-62
2022/08/18 08:24:44;;;;;;;;;;;;;;;29.36;60.77;97342.97;5132652;28;19970;-62
2022/08/18 08:27:15;;;;;;;;;;;;;;;29.29;61.21;97356.75;5121873;28;19963;-62
2022/08/18 08:29:48;;;;;;;;;;;;;;;29.44;60.68;97342.53;5118625;28;19966;-61
2022/08/18 08:32:18;;;;;;;;;;;;;;;29.51;60.34;97325.22;5118376;28;19935;-62
2022/08/18 08:34:50;;;;;;;;;;;;;;;29.49;60.66;97324.84;5118665;28;19966;-62
2022/08/18 08:37:19;;;;;;;;;;;;;;;29.32;60.82;97328.44;5118238;28;19988;-63
2022/08/18 08:39:49;;;;;;;;;;;;;;;29.31;60.71;97338.66;5118588;28;19995;-62
2022/08/18 08:42:18;;;;;;;;;;;;;;;29.52;60.20;97345.25;5118338;28;19920;-62
2022/08/18 08:44:47;;;;;;;;;;;;;;;29.48;60.20;97344.47;5118420;28;19995;-62
2022/08/18 08:47:16;;;;;;;;;;;;;;;29.57;59.64;97331.84;5118340;28;19924;-61
2022/08/18 08:49:46;;;;;;;;;;;;;;;29.53;59.95;97331.09;5121969;28;20018;-62
2022/08/18 08:52:16;;;;;;;;;;;;;;;29.63;59.23;97338.50;5121843;28;19951;-62
2022/08/18 08:54:46;;;;;;;;;;;;;;;29.66;59.29;97345.97;5127256;28;19930;-61
2022/08/18 08:57:14;;;;;;;;;;;;;;;29.72;59.07;97341.59;5121701;28;19934;-62
2022/08/18 08:59:42;;;;;;;;;;;;;;;29.69;58.95;97341.63;5118615;28;19924;-61
2022/08/18 09:02:20;;;;;;;;;;;;;;;29.57;59.31;97336.56;5117986;28;20034;-61
2022/08/18 09:04:49;;;;;;;;;;;;;;;29.64;58.86;97340.09;5118167;28;19967;-62
2022/08/18 09:07:26;;;;;;;;;;;;;;;29.58;58.42;97329.91;5117774;28;19966;-61
2022/08/18 09:09:59;;;;;;;;;;;;;;;29.63;59.13;97311.00;5109583;28;19924;-61
2022/08/18 09:12:35;;;;;;;;;;;;;;;29.75;58.76;97316.03;5109360;28;19924;-62
2022/08/18 09:15:13;;;;;;;;;;;;;;;29.82;58.62;97305.00;5110285;28;19928;-63
2022/08/18 09:17:54;;;;;;;;;;;;;;;29.98;58.19;97294.28;5113280;28;19968;-62
2022/08/18 09:20:31;;;;;;;;;;;;;;;29.77;58.51;97277.88;5105158;28;19935;-61
2022/08/18 09:23:04;;;;;;;;;;;;;;;29.60;57.35;97266.97;5118852;28;19924;-61
2022/08/18 09:25:32;;;;;;;;;;;;;;;29.14;58.33;97269.97;5134805;27;19924;-62
2022/08/18 09:28:10;;;;;;;;;;;;;;;29.06;59.82;97280.19;5121834;28;19928;-60
2022/08/18 09:30:40;;;;;;;;;;;;;;;29.43;59.60;97274.94;5124056;28;19948;-62
2022/08/18 09:33:17;;;;;;;;;;;;;;;29.65;58.82;97269.31;5124816;28;19924;-61
2022/08/18 09:35:56;;;;;;;;;;;;;;;29.69;57.21;97275.56;5121394;28;19924;-61
2022/08/18 09:44:08;;;;;;;;;;;;;;;29.83;54.90;97270.75;5121645;28;19932;-62
2022/08/18 09:46:54;;;;;;;;;;;;;;;30.04;56.42;97274.56;5123733;28;19920;-62
2022/08/18 09:49:40;;;;;;;;;;;;;;;29.91;54.96;97277.81;5124662;28;19935;-62
2022/08/18 09:52:22;;;;;;;;;;;;;;;30.17;55.60;97272.88;5121262;28;19931;-63
2022/08/18 09:54:51;;;;;;;;;;;;;;;30.46;54.67;97276.94;5127295;27;19955;-62
2022/08/18 09:57:20;;;;;;;;;;;;;;;30.44;54.34;97279.34;5124337;28;19928;-62
2022/08/18 09:59:51;;;;;;;;;;;;;;;30.57;53.49;97287.88;5112510;28;19991;-66
2022/08/18 10:02:32;;;;;;;;;;;;;;;30.56;54.19;97300.88;5112401;28;19924;-62
2022/08/18 10:05:22;;;;;;;;;;;;;;;30.45;54.31;97305.72;5118685;28;19952;-62
2022/08/18 10:07:49;;;;;;;;;;;;;;;30.42;53.86;97303.78;5120844;28;20093;-62
2022/08/18 10:10:22;;;;;;;;;;;;;;;30.11;54.42;97291.03;5120981;28;19996;-63
2022/08/18 10:12:57;;;;;;;;;;;;;;;30.28;53.43;97285.34;5112673;28;19932;-61
2022/08/18 10:15:34;;;;;;;;;;;;;;;30.39;53.42;97288.06;5112480;28;19928;-60
2022/08/18 10:18:18;;;;;;;;;;;;;;;30.64;52.73;97291.34;5112292;28;20001;-61
2022/08/18 10:20:50;;;;;;;;;;;;;;;30.66;52.77;97296.44;5120776;28;19962;-62
2022/08/18 10:23:32;;;;;;;;;;;;;;;30.91;51.75;97286.72;5120778;28;19924;-62
2022/08/18 10:25:59;;;;;;;;;;;;;;;30.86;50.78;97303.69;5130864;27;19924;-61
2022/08/18 10:28:40;;;;;;;;;;;;;;;30.68;51.22;97314.13;5121397;28;19924;-61
2022/08/18 10:31:07;;;;;;;;;;;;;;;30.54;52.94;97316.25;5124614;27;19951;-61
2022/08/18 10:33:48;;;;;;;;;;;;;;;30.85;52.48;97313.19;5121695;28;19923;-61
2022/08/18 10:36:32;;;;;;;;;;;;;;;31.01;52.00;97310.66;5107015;28;19931;-62
2022/08/18 10:38:58;;;;;;;;;;;;;;;31.14;51.30;97305.38;5111866;28;20294;-62
2022/08/18 10:41:29;;;;;;;;;;;;;;;31.20;50.18;97300.97;5112076;28;19959;-62
2022/08/18 10:43:56;;;;;;;;;;;;;;;31.22;50.91;97300.56;5112092;28;19963;-62
2022/08/18 10:46:23;;;;;;;;;;;;;;;31.27;50.60;97294.56;5111675;28;19931;-62
2022/08/18 10:49:01;;;;;;;;;;;;;;;31.42;49.91;97293.19;5111526;28;19951;-62
2022/08/18 10:51:35;;;;;;;;;;;;;;;31.45;49.63;97284.09;5111599;28;19924;-62
2022/08/18 10:54:05;;;;;;;;;;;;;;;31.21;47.40;97288.75;5118040;27;19920;-62
2022/08/18 10:56:35;;;;;;;;;;;;;;;30.80;49.50;97275.00;5124959;27;19962;-61
2022/08/18 10:59:13;;;;;;;;;;;;;;;30.58;48.55;97270.16;5123423;28;19924;-62
2022/08/18 11:01:51;;;;;;;;;;;;;;;30.47;48.58;97276.56;5120138;28;19971;-62
2022/08/18 11:04:25;;;;;;;;;;;;;;;30.47;49.22;97281.28;5119785;28;19924;-62
2022/08/18 11:06:57;;;;;;;;;;;;;;;30.80;50.39;97286.03;5111229;28;19978;-62
2022/08/18 11:09:25;;;;;;;;;;;;;;;31.14;49.83;97291.59;5111080;28;19951;-63
2022/08/18 11:11:54;;;;;;;;;;;;;;;31.41;49.11;97288.88;5111236;28;19924;-62
2022/08/18 11:14:30;;;;;;;;;;;;;;;31.61;48.44;97275.22;5111109;28;19935;-61
2022/08/18 11:17:01;;;;;;;;;;;;;;;31.42;47.84;97268.34;5111118;28;19967;-61
2022/08/18 11:19:27;;;;;;;;;;;;;;;31.08;48.50;97275.91;5110860;28;19924;-61
2022/08/18 11:21:53;;;;;;;;;;;;;;;31.26;49.22;97262.69;5110705;28;19959;-62
2022/08/18 11:24:21;;;;;;;;;;;;;;;31.45;48.35;97256.50;5122222;27;19955;-62
2022/08/18 11:26:49;;;;;;;;;;;;;;;31.48;48.91;97259.19;5122677;28;19958;-62
2022/08/18 11:29:25;;;;;;;;;;;;;;;31.57;48.63;97263.47;5122578;28;19924;-61
2022/08/18 11:31:54;;;;;;;;;;;;;;;31.48;47.68;97255.66;5110193;28;19924;-62
2022/08/18 11:34:25;;;;;;;;;;;;;;;31.24;48.49;97248.50;5110476;28;19967;-62
2022/08/18 11:36:56;;;;;;;;;;;;;;;31.11;48.55;97259.31;5110541;28;19924;-61
2022/08/18 11:39:23;;;;;;;;;;;;;;;31.41;48.33;97258.53;5110044;28;19983;-61
2022/08/18 11:41:49;;;;;;;;;;;;;;;31.43;48.13;97247.84;5110616;28;20029;-62
2022/08/18 11:44:18;;;;;;;;;;;;;;;31.01;48.18;97235.44;5110464;28;19991;-62
2022/08/18 11:46:46;;;;;;;;;;;;;;;31.43;48.52;97239.56;5118928;28;19924;-61
2022/08/18 11:49:15;;;;;;;;;;;;;;;31.36;48.71;97234.16;5118577;28;20026;-62
2022/08/18 11:51:53;;;;;;;;;;;;;;;31.39;47.96;97242.38;5121831;28;19989;-62
2022/08/18 11:54:21;;;;;;;;;;;;;;;31.40;47.63;97237.66;5127882;27;19959;-62
2022/08/18 11:56:47;;;;;;;;;;;;;;;31.34;48.41;97245.63;5122308;28;19924;-61
2022/08/18 11:59:30;;;;;;;;;;;;;;;31.63;48.58;97246.00;5122053;28;20679;-60
2022/08/18 12:01:59;;;;;;;;;;;;;;;31.40;48.54;97240.41;5110412;28;19975;-63
2022/08/18 12:04:28;;;;;;;;;;;;;;;31.53;48.86;97233.16;5110089;28;19983;-62
2022/08/18 12:07:00;;;;;;;;;;;;;;;31.46;48.55;97235.97;5110250;28;19943;-63
2022/08/18 12:09:31;;;;;;;;;;;;;;;31.67;48.35;97238.44;5110127;28;19959;-62
2022/08/18 12:12:01;;;;;;;;;;;;;;;31.22;47.79;97231.59;5110002;28;19995;-62
2022/08/18 12:14:28;;;;;;;;;;;;;;;31.00;48.54;97228.34;5109733;28;19932;-61
2022/08/18 12:16:55;;;;;;;;;;;;;;;31.11;49.39;97220.69;5109933;28;19920;-63
2022/08/18 12:19:26;;;;;;;;;;;;;;;31.48;49.17;97217.03;5109986;28;19928;-63
2022/08/18 12:21:53;;;;;;;;;;;;;;;31.28;47.71;97208.66;5109995;28;19924;-61
2022/08/18 12:24:21;;;;;;;;;;;;;;;31.42;48.16;97196.59;5121388;27;19926;-62
2022/08/18 12:26:48;;;;;;;;;;;;;;;31.44;46.92;97178.44;5121984;28;19962;-62
2022/08/18 12:29:16;;;;;;;;;;;;;;;31.10;47.72;97163.22;5121659;28;19966;-62
2022/08/18 12:31:42;;;;;;;;;;;;;;;31.24;47.72;97163.00;5118624;28;19928;-62
2022/08/18 12:34:08;;;;;;;;;;;;;;;31.34;47.61;97167.56;5118297;28;19959;-62
2022/08/18 12:36:36;;;;;;;;;;;;;;;31.45;48.30;97168.97;5120284;28;19952;-62
2022/08/18 12:39:03;;;;;;;;;;;;;;;31.59;48.32;97172.75;5121948;28;19983;-61
2022/08/18 12:41:29;;;;;;;;;;;;;;;31.74;47.05;97166.56;5120455;28;19919;-61
2022/08/18 12:43:55;;;;;;;;;;;;;;;31.56;46.93;97163.31;5118670;28;19924;-61
2022/08/18 12:46:22;;;;;;;;;;;;;;;31.44;47.14;97158.38;5118847;28;19978;-60
2022/08/18 12:48:48;;;;;;;;;;;;;;;31.24;47.00;97152.75;5122211;28;19930;-61
2022/08/18 12:51:14;;;;;;;;;;;;;;;31.22;47.53;97151.59;5125727;28;19958;-61
2022/08/18 12:53:42;;;;;;;;;;;;;;;31.26;47.33;97155.09;5123346;27;19960;-61
2022/08/18 12:56:16;;;;;;;;;;;;;;;30.79;47.81;97145.88;5132282;27;19963;-62
2022/08/18 12:58:43;;;;;;;;;;;;;;;31.12;47.50;97138.75;5125477;28;19988;-62
2022/08/18 13:01:09;;;;;;;;;;;;;;;31.38;47.36;97129.69;5125365;28;19919;-61
2022/08/18 13:03:36;;;;;;;;;;;;;;;31.58;46.82;97132.53;5123020;28;19963;-62
2022/08/18 13:06:02;;;;;;;;;;;;;;;31.57;46.85;97128.97;5122057;28;20549;-62
2022/08/18 13:08:29;;;;;;;;;;;;;;;31.68;46.50;97123.28;5105086;28;19924;-63
2022/08/18 13:11:00;;;;;;;;;;;;;;;31.74;47.00;97119.63;5125441;28;19951;-62
2022/08/18 13:13:26;;;;;;;;;;;;;;;31.77;47.33;97113.28;5124368;28;19930;-61
2022/08/18 13:15:53;;;;;;;;;;;;;;;31.95;45.78;97115.69;5122010;28;19971;-62
2022/08/18 13:18:19;;;;;;;;;;;;;;;31.76;46.00;97128.25;5103750;28;19946;-62
2022/08/18 13:20:46;;;;;;;;;;;;;;;31.74;45.83;97141.72;5125272;28;19974;-62